CheckWX is a tool to help pilots better visualize weather data.  It is not intended as a substitute for an official pre-flight weather briefing.

18:11:48 UTC

KAUS METAR
Austin-Bergstrom International Airport
Austin, Texas, USA
Current

19 mins ago

KAUS 261753Z 32006KT 10SM FEW250 20/11 A3002 RMK AO2 SLP160 T02000111 10206 20078 50002 $
Observed
Jan-26 @ 17:53 UTC
Wind
  • 320° at 6 KTS
Visibility
10 SM
Flight Rules
VFR
Cloud Levels
  • Few at 25,000' AGL
Temperature
20°C / 68°F
Dewpoint
11°C / 52°F
Humidity
56%
Altimeter
30.02" Hg
Pressure
1016.62 hPa
Previous

1 hour ago

KAUS 261653Z 34008KT 10SM FEW250 19/11 A3004 RMK AO2 SLP169 T01890111 $
Observed
Jan-26 @ 16:53 UTC
Wind
  • 340° at 8 KTS
Visibility
10 SM
Flight Rules
VFR
Cloud Levels
  • Few at 25,000' AGL
Temperature
19°C / 66°F
Dewpoint
11°C / 52°F
Humidity
60%
Altimeter
30.04" Hg
Pressure
1017.32 hPa
Previous

2 hours ago

KAUS 261553Z 32007KT 10SM FEW250 17/12 A3003 RMK AO2 SLP166 T01670122 $
Observed
Jan-26 @ 15:53 UTC
Wind
  • 320° at 7 KTS
Visibility
10 SM
Flight Rules
VFR
Cloud Levels
  • Few at 25,000' AGL
Temperature
17°C / 63°F
Dewpoint
12°C / 54°F
Humidity
73%
Altimeter
30.03" Hg
Pressure
1016.92 hPa